sensor_id;sensor_type;location;lat;lon;timestamp;P1;durP1;ratioP1;P2;durP2;ratioP2
25780;SDS011;13626;48.128;11.628;2022-12-17T00:00:28;30.63;;;15.30;;
25780;SDS011;13626;48.128;11.628;2022-12-17T00:03:14;31.17;;;15.70;;
25780;SDS011;13626;48.128;11.628;2022-12-17T00:06:01;27.25;;;14.57;;
25780;SDS011;13626;48.128;11.628;2022-12-17T00:08:47;27.55;;;13.82;;
25780;SDS011;13626;48.128;11.628;2022-12-17T00:11:33;32.22;;;13.43;;
25780;SDS011;13626;48.128;11.628;2022-12-17T00:14:21;24.20;;;13.25;;
25780;SDS011;13626;48.128;11.628;2022-12-17T00:17:07;23.52;;;13.05;;
25780;SDS011;13626;48.128;11.628;2022-12-17T00:19:53;29.25;;;13.93;;
25780;SDS011;13626;48.128;11.628;2022-12-17T00:22:39;26.63;;;13.07;;
25780;SDS011;13626;48.128;11.628;2022-12-17T00:25:25;26.33;;;13.52;;
25780;SDS011;13626;48.128;11.628;2022-12-17T00:28:11;26.67;;;13.93;;
25780;SDS011;13626;48.128;11.628;2022-12-17T00:30:58;26.77;;;13.02;;
25780;SDS011;13626;48.128;11.628;2022-12-17T00:33:45;25.27;;;13.90;;
25780;SDS011;13626;48.128;11.628;2022-12-17T00:36:30;27.00;;;14.30;;
25780;SDS011;13626;48.128;11.628;2022-12-17T00:39:16;25.60;;;13.32;;
25780;SDS011;13626;48.128;11.628;2022-12-17T00:42:02;27.33;;;14.48;;
25780;SDS011;13626;48.128;11.628;2022-12-17T00:44:48;29.45;;;14.98;;
25780;SDS011;13626;48.128;11.628;2022-12-17T00:47:34;28.77;;;13.50;;
25780;SDS011;13626;48.128;11.628;2022-12-17T00:50:21;27.05;;;13.80;;
25780;SDS011;13626;48.128;11.628;2022-12-17T00:53:08;26.75;;;14.57;;
25780;SDS011;13626;48.128;11.628;2022-12-17T00:55:54;26.50;;;13.15;;
25780;SDS011;13626;48.128;11.628;2022-12-17T00:58:40;25.85;;;13.57;;
25780;SDS011;13626;48.128;11.628;2022-12-17T01:01:26;27.23;;;13.35;;
25780;SDS011;13626;48.128;11.628;2022-12-17T01:04:12;26.55;;;14.75;;
25780;SDS011;13626;48.128;11.628;2022-12-17T01:06:57;26.17;;;14.07;;
25780;SDS011;13626;48.128;11.628;2022-12-17T01:09:43;27.85;;;13.45;;
25780;SDS011;13626;48.128;11.628;2022-12-17T01:12:30;26.48;;;14.60;;
25780;SDS011;13626;48.128;11.628;2022-12-17T01:15:17;25.50;;;13.15;;
25780;SDS011;13626;48.128;11.628;2022-12-17T01:18:03;25.48;;;14.20;;
25780;SDS011;13626;48.128;11.628;2022-12-17T01:20:54;25.58;;;13.43;;
25780;SDS011;13626;48.128;11.628;2022-12-17T01:23:40;26.75;;;14.05;;
25780;SDS011;13626;48.128;11.628;2022-12-17T01:26:26;28.50;;;13.73;;
25780;SDS011;13626;48.128;11.628;2022-12-17T01:29:12;28.50;;;13.63;;
25780;SDS011;13626;48.128;11.628;2022-12-17T01:31:58;24.63;;;13.82;;
25780;SDS011;13626;48.128;11.628;2022-12-17T01:34:44;26.15;;;13.75;;
25780;SDS011;13626;48.128;11.628;2022-12-17T01:37:30;30.02;;;13.73;;
25780;SDS011;13626;48.128;11.628;2022-12-17T01:40:16;26.48;;;13.65;;
25780;SDS011;13626;48.128;11.628;2022-12-17T01:43:02;32.95;;;14.07;;
25780;SDS011;13626;48.128;11.628;2022-12-17T01:45:47;28.92;;;14.50;;
25780;SDS011;13626;48.128;11.628;2022-12-17T01:48:37;26.08;;;14.13;;
25780;SDS011;13626;48.128;11.628;2022-12-17T01:51:24;26.35;;;13.73;;
25780;SDS011;13626;48.128;11.628;2022-12-17T01:54:11;23.77;;;13.35;;
25780;SDS011;13626;48.128;11.628;2022-12-17T01:56:57;24.48;;;13.38;;
25780;SDS011;13626;48.128;11.628;2022-12-17T01:59:50;27.90;;;14.18;;
25780;SDS011;13626;48.128;11.628;2022-12-17T02:02:37;27.47;;;13.33;;
25780;SDS011;13626;48.128;11.628;2022-12-17T02:05:26;25.40;;;13.32;;
25780;SDS011;13626;48.128;11.628;2022-12-17T02:11:13;24.30;;;13.07;;
25780;SDS011;13626;48.128;11.628;2022-12-17T02:14:05;24.00;;;13.40;;
25780;SDS011;13626;48.128;11.628;2022-12-17T02:16:54;29.13;;;13.48;;
25780;SDS011;13626;48.128;11.628;2022-12-17T02:22:52;25.67;;;13.32;;
25780;SDS011;13626;48.128;11.628;2022-12-17T02:25:42;26.08;;;13.38;;
25780;SDS011;13626;48.128;11.628;2022-12-17T02:28:30;28.60;;;14.10;;
25780;SDS011;13626;48.128;11.628;2022-12-17T02:31:17;27.00;;;13.90;;
25780;SDS011;13626;48.128;11.628;2022-12-17T02:34:03;28.27;;;14.48;;
25780;SDS011;13626;48.128;11.628;2022-12-17T02:36:49;26.15;;;12.52;;
25780;SDS011;13626;48.128;11.628;2022-12-17T02:39:35;25.27;;;13.55;;
25780;SDS011;13626;48.128;11.628;2022-12-17T02:42:22;24.65;;;13.82;;
25780;SDS011;13626;48.128;11.628;2022-12-17T02:45:09;27.88;;;14.35;;
25780;SDS011;13626;48.128;11.628;2022-12-17T02:47:55;27.70;;;14.18;;
25780;SDS011;13626;48.128;11.628;2022-12-17T02:50:41;26.48;;;13.75;;
25780;SDS011;13626;48.128;11.628;2022-12-17T02:53:27;24.05;;;13.65;;
25780;SDS011;13626;48.128;11.628;2022-12-17T02:56:24;25.40;;;14.35;;
25780;SDS011;13626;48.128;11.628;2022-12-17T02:59:10;24.80;;;13.60;;
25780;SDS011;13626;48.128;11.628;2022-12-17T03:02:00;24.23;;;12.75;;
25780;SDS011;13626;48.128;11.628;2022-12-17T03:04:47;25.40;;;13.93;;
25780;SDS011;13626;48.128;11.628;2022-12-17T03:07:52;26.75;;;14.68;;
25780;SDS011;13626;48.128;11.628;2022-12-17T03:10:38;26.75;;;14.77;;
25780;SDS011;13626;48.128;11.628;2022-12-17T03:13:25;25.58;;;13.13;;
25780;SDS011;13626;48.128;11.628;2022-12-17T03:16:12;28.17;;;14.02;;
25780;SDS011;13626;48.128;11.628;2022-12-17T03:19:03;27.30;;;13.75;;
25780;SDS011;13626;48.128;11.628;2022-12-17T03:21:49;25.80;;;13.75;;
25780;SDS011;13626;48.128;11.628;2022-12-17T03:24:34;24.38;;;13.27;;
25780;SDS011;13626;48.128;11.628;2022-12-17T03:27:20;24.25;;;14.27;;
25780;SDS011;13626;48.128;11.628;2022-12-17T03:30:06;30.42;;;14.45;;
25780;SDS011;13626;48.128;11.628;2022-12-17T03:32:53;25.10;;;13.85;;
25780;SDS011;13626;48.128;11.628;2022-12-17T03:35:39;25.65;;;14.38;;
25780;SDS011;13626;48.128;11.628;2022-12-17T03:38:25;25.48;;;14.32;;
25780;SDS011;13626;48.128;11.628;2022-12-17T03:41:11;25.55;;;13.82;;
25780;SDS011;13626;48.128;11.628;2022-12-17T03:43:57;26.25;;;13.57;;
25780;SDS011;13626;48.128;11.628;2022-12-17T03:46:43;24.92;;;14.02;;
25780;SDS011;13626;48.128;11.628;2022-12-17T03:49:29;29.05;;;14.77;;
25780;SDS011;13626;48.128;11.628;2022-12-17T03:52:15;29.05;;;14.40;;
25780;SDS011;13626;48.128;11.628;2022-12-17T03:55:01;25.63;;;14.38;;
25780;SDS011;13626;48.128;11.628;2022-12-17T03:57:47;29.58;;;14.00;;
25780;SDS011;13626;48.128;11.628;2022-12-17T04:00:32;27.77;;;14.98;;
25780;SDS011;13626;48.128;11.628;2022-12-17T04:03:18;30.15;;;15.10;;
25780;SDS011;13626;48.128;11.628;2022-12-17T04:06:05;28.42;;;14.05;;
25780;SDS011;13626;48.128;11.628;2022-12-17T04:08:51;27.58;;;14.50;;
25780;SDS011;13626;48.128;11.628;2022-12-17T04:11:37;26.75;;;13.68;;
25780;SDS011;13626;48.128;11.628;2022-12-17T04:14:23;26.60;;;14.63;;
25780;SDS011;13626;48.128;11.628;2022-12-17T04:17:09;26.10;;;14.20;;
25780;SDS011;13626;48.128;11.628;2022-12-17T04:19:55;29.65;;;15.52;;
25780;SDS011;13626;48.128;11.628;2022-12-17T04:22:41;26.42;;;13.90;;
25780;SDS011;13626;48.128;11.628;2022-12-17T04:25:27;30.52;;;14.90;;
25780;SDS011;13626;48.128;11.628;2022-12-17T04:28:13;27.63;;;14.25;;
25780;SDS011;13626;48.128;11.628;2022-12-17T04:30:59;28.35;;;14.85;;
25780;SDS011;13626;48.128;11.628;2022-12-17T04:33:45;26.85;;;13.60;;
25780;SDS011;13626;48.128;11.628;2022-12-17T04:36:31;28.75;;;14.18;;
25780;SDS011;13626;48.128;11.628;2022-12-17T04:39:17;24.92;;;13.98;;
25780;SDS011;13626;48.128;11.628;2022-12-17T04:42:03;31.63;;;14.88;;
25780;SDS011;13626;48.128;11.628;2022-12-17T04:44:49;29.45;;;14.85;;
25780;SDS011;13626;48.128;11.628;2022-12-17T04:47:35;30.83;;;15.07;;
25780;SDS011;13626;48.128;11.628;2022-12-17T04:50:21;28.77;;;15.07;;
25780;SDS011;13626;48.128;11.628;2022-12-17T04:53:08;25.33;;;13.70;;
25780;SDS011;13626;48.128;11.628;2022-12-17T04:55:55;26.65;;;14.50;;
25780;SDS011;13626;48.128;11.628;2022-12-17T04:58:40;28.30;;;14.60;;
25780;SDS011;13626;48.128;11.628;2022-12-17T05:01:26;27.73;;;14.98;;
25780;SDS011;13626;48.128;11.628;2022-12-17T05:04:12;28.88;;;14.00;;
25780;SDS011;13626;48.128;11.628;2022-12-17T05:06:58;28.20;;;13.98;;
25780;SDS011;13626;48.128;11.628;2022-12-17T05:09:44;28.67;;;15.13;;
25780;SDS011;13626;48.128;11.628;2022-12-17T05:12:30;27.10;;;14.68;;
25780;SDS011;13626;48.128;11.628;2022-12-17T05:15:17;28.42;;;15.65;;
25780;SDS011;13626;48.128;11.628;2022-12-17T05:18:04;26.85;;;13.88;;
25780;SDS011;13626;48.128;11.628;2022-12-17T05:20:50;26.27;;;14.63;;
25780;SDS011;13626;48.128;11.628;2022-12-17T05:23:36;27.13;;;14.90;;
25780;SDS011;13626;48.128;11.628;2022-12-17T05:26:23;29.40;;;14.77;;
25780;SDS011;13626;48.128;11.628;2022-12-17T05:29:09;26.92;;;15.35;;
25780;SDS011;13626;48.128;11.628;2022-12-17T05:31:54;28.30;;;15.05;;
25780;SDS011;13626;48.128;11.628;2022-12-17T05:34:40;28.02;;;14.90;;
25780;SDS011;13626;48.128;11.628;2022-12-17T05:37:26;25.92;;;14.00;;
25780;SDS011;13626;48.128;11.628;2022-12-17T05:40:12;27.50;;;15.18;;
25780;SDS011;13626;48.128;11.628;2022-12-17T05:42:59;28.80;;;15.52;;
25780;SDS011;13626;48.128;11.628;2022-12-17T05:45:45;31.10;;;16.15;;
25780;SDS011;13626;48.128;11.628;2022-12-17T05:48:32;30.35;;;15.32;;
25780;SDS011;13626;48.128;11.628;2022-12-17T05:51:38;29.45;;;15.32;;
25780;SDS011;13626;48.128;11.628;2022-12-17T05:54:24;27.15;;;15.02;;
25780;SDS011;13626;48.128;11.628;2022-12-17T05:57:09;28.23;;;15.68;;
25780;SDS011;13626;48.128;11.628;2022-12-17T05:59:55;24.77;;;15.07;;
25780;SDS011;13626;48.128;11.628;2022-12-17T06:02:41;28.15;;;15.55;;
25780;SDS011;13626;48.128;11.628;2022-12-17T06:05:27;29.85;;;15.65;;
25780;SDS011;13626;48.128;11.628;2022-12-17T06:08:13;26.70;;;14.50;;
25780;SDS011;13626;48.128;11.628;2022-12-17T06:10:59;30.13;;;15.02;;
25780;SDS011;13626;48.128;11.628;2022-12-17T06:13:45;27.80;;;14.80;;
25780;SDS011;13626;48.128;11.628;2022-12-17T06:16:31;30.30;;;16.33;;
25780;SDS011;13626;48.128;11.628;2022-12-17T06:19:17;31.55;;;16.98;;
25780;SDS011;13626;48.128;11.628;2022-12-17T06:22:03;27.52;;;15.20;;
25780;SDS011;13626;48.128;11.628;2022-12-17T06:24:49;29.52;;;15.30;;
25780;SDS011;13626;48.128;11.628;2022-12-17T06:27:35;28.48;;;15.55;;
25780;SDS011;13626;48.128;11.628;2022-12-17T06:30:21;27.00;;;14.27;;
25780;SDS011;13626;48.128;11.628;2022-12-17T06:33:08;23.75;;;13.68;;
25780;SDS011;13626;48.128;11.628;2022-12-17T06:35:55;26.83;;;14.07;;
25780;SDS011;13626;48.128;11.628;2022-12-17T06:38:47;22.42;;;13.45;;
25780;SDS011;13626;48.128;11.628;2022-12-17T06:41:33;26.05;;;13.77;;
25780;SDS011;13626;48.128;11.628;2022-12-17T06:44:29;24.02;;;13.25;;
25780;SDS011;13626;48.128;11.628;2022-12-17T06:47:16;27.45;;;14.25;;
25780;SDS011;13626;48.128;11.628;2022-12-17T06:50:03;28.08;;;13.77;;
25780;SDS011;13626;48.128;11.628;2022-12-17T06:53:02;29.23;;;14.48;;
25780;SDS011;13626;48.128;11.628;2022-12-17T06:55:48;27.58;;;14.85;;
25780;SDS011;13626;48.128;11.628;2022-12-17T06:58:34;27.80;;;14.52;;
25780;SDS011;13626;48.128;11.628;2022-12-17T07:01:20;25.80;;;13.52;;
25780;SDS011;13626;48.128;11.628;2022-12-17T07:04:06;27.23;;;14.57;;
25780;SDS011;13626;48.128;11.628;2022-12-17T07:06:52;29.17;;;15.07;;
25780;SDS011;13626;48.128;11.628;2022-12-17T07:09:39;28.67;;;15.18;;
25780;SDS011;13626;48.128;11.628;2022-12-17T07:12:25;27.23;;;14.77;;
25780;SDS011;13626;48.128;11.628;2022-12-17T07:15:11;26.67;;;14.75;;
25780;SDS011;13626;48.128;11.628;2022-12-17T07:17:58;30.63;;;15.30;;
25780;SDS011;13626;48.128;11.628;2022-12-17T07:20:45;25.80;;;13.98;;
25780;SDS011;13626;48.128;11.628;2022-12-17T07:23:31;26.42;;;13.85;;
25780;SDS011;13626;48.128;11.628;2022-12-17T07:26:17;24.17;;;13.07;;
25780;SDS011;13626;48.128;11.628;2022-12-17T07:29:03;29.17;;;14.80;;
25780;SDS011;13626;48.128;11.628;2022-12-17T07:31:49;29.02;;;15.00;;
25780;SDS011;13626;48.128;11.628;2022-12-17T07:34:35;27.88;;;14.57;;
25780;SDS011;13626;48.128;11.628;2022-12-17T07:37:21;25.08;;;13.57;;
25780;SDS011;13626;48.128;11.628;2022-12-17T07:40:08;25.33;;;14.10;;
25780;SDS011;13626;48.128;11.628;2022-12-17T07:42:53;26.00;;;14.55;;
25780;SDS011;13626;48.128;11.628;2022-12-17T07:45:39;27.30;;;14.55;;
25780;SDS011;13626;48.128;11.628;2022-12-17T07:48:25;27.90;;;14.65;;
25780;SDS011;13626;48.128;11.628;2022-12-17T07:51:11;26.30;;;14.23;;
25780;SDS011;13626;48.128;11.628;2022-12-17T07:53:57;27.63;;;14.82;;
25780;SDS011;13626;48.128;11.628;2022-12-17T07:56:43;28.88;;;13.88;;
25780;SDS011;13626;48.128;11.628;2022-12-17T07:59:29;28.15;;;15.10;;
25780;SDS011;13626;48.128;11.628;2022-12-17T08:02:15;28.27;;;14.38;;
25780;SDS011;13626;48.128;11.628;2022-12-17T08:05:02;23.77;;;13.20;;
25780;SDS011;13626;48.128;11.628;2022-12-17T08:07:47;29.95;;;13.95;;
25780;SDS011;13626;48.128;11.628;2022-12-17T08:10:33;24.48;;;13.27;;
25780;SDS011;13626;48.128;11.628;2022-12-17T08:13:19;25.33;;;13.55;;
25780;SDS011;13626;48.128;11.628;2022-12-17T08:16:05;27.52;;;14.02;;
25780;SDS011;13626;48.128;11.628;2022-12-17T08:18:51;25.40;;;13.00;;
25780;SDS011;13626;48.128;11.628;2022-12-17T08:21:37;25.25;;;12.95;;
25780;SDS011;13626;48.128;11.628;2022-12-17T08:24:23;25.83;;;13.02;;
25780;SDS011;13626;48.128;11.628;2022-12-17T08:27:09;22.20;;;12.60;;
25780;SDS011;13626;48.128;11.628;2022-12-17T08:29:55;22.58;;;11.75;;
25780;SDS011;13626;48.128;11.628;2022-12-17T08:32:41;22.80;;;13.27;;
25780;SDS011;13626;48.128;11.628;2022-12-17T08:35:27;27.60;;;12.57;;
25780;SDS011;13626;48.128;11.628;2022-12-17T08:38:13;22.80;;;12.27;;
25780;SDS011;13626;48.128;11.628;2022-12-17T08:40:59;26.40;;;12.30;;
25780;SDS011;13626;48.128;11.628;2022-12-17T08:43:45;26.10;;;13.20;;
25780;SDS011;13626;48.128;11.628;2022-12-17T08:46:31;21.90;;;12.98;;
25780;SDS011;13626;48.128;11.628;2022-12-17T08:49:17;22.77;;;12.38;;
25780;SDS011;13626;48.128;11.628;2022-12-17T08:52:03;23.15;;;12.57;;
25780;SDS011;13626;48.128;11.628;2022-12-17T08:54:49;24.52;;;13.20;;
25780;SDS011;13626;48.128;11.628;2022-12-17T08:57:35;23.23;;;12.57;;
25780;SDS011;13626;48.128;11.628;2022-12-17T09:00:21;25.30;;;13.68;;
25780;SDS011;13626;48.128;11.628;2022-12-17T09:03:07;20.27;;;11.90;;
25780;SDS011;13626;48.128;11.628;2022-12-17T09:05:53;29.67;;;15.50;;
25780;SDS011;13626;48.128;11.628;2022-12-17T09:08:39;23.63;;;13.50;;
25780;SDS011;13626;48.128;11.628;2022-12-17T09:11:25;23.45;;;12.88;;
25780;SDS011;13626;48.128;11.628;2022-12-17T09:14:11;23.00;;;13.07;;
25780;SDS011;13626;48.128;11.628;2022-12-17T09:16:57;22.63;;;11.90;;
25780;SDS011;13626;48.128;11.628;2022-12-17T09:19:43;23.40;;;14.43;;
25780;SDS011;13626;48.128;11.628;2022-12-17T09:22:29;19.30;;;12.32;;
25780;SDS011;13626;48.128;11.628;2022-12-17T09:25:15;18.95;;;12.68;;
25780;SDS011;13626;48.128;11.628;2022-12-17T09:28:02;20.75;;;13.10;;
25780;SDS011;13626;48.128;11.628;2022-12-17T09:30:48;22.40;;;14.23;;
25780;SDS011;13626;48.128;11.628;2022-12-17T09:33:34;20.88;;;12.30;;
25780;SDS011;13626;48.128;11.628;2022-12-17T09:36:20;21.80;;;13.90;;
25780;SDS011;13626;48.128;11.628;2022-12-17T09:39:11;21.20;;;13.25;;
25780;SDS011;13626;48.128;11.628;2022-12-17T09:44:57;22.45;;;13.70;;
25780;SDS011;13626;48.128;11.628;2022-12-17T09:50:57;21.10;;;13.63;;
25780;SDS011;13626;48.128;11.628;2022-12-17T09:53:48;20.02;;;13.43;;
25780;SDS011;13626;48.128;11.628;2022-12-17T09:56:34;20.90;;;14.07;;
25780;SDS011;13626;48.128;11.628;2022-12-17T09:59:26;19.35;;;13.50;;
25780;SDS011;13626;48.128;11.628;2022-12-17T10:02:22;21.27;;;13.40;;
25780;SDS011;13626;48.128;11.628;2022-12-17T10:05:13;22.77;;;14.07;;
25780;SDS011;13626;48.128;11.628;2022-12-17T10:08:00;21.90;;;13.52;;
25780;SDS011;13626;48.128;11.628;2022-12-17T10:10:48;21.88;;;14.88;;
25780;SDS011;13626;48.128;11.628;2022-12-17T10:13:34;19.58;;;13.45;;
25780;SDS011;13626;48.128;11.628;2022-12-17T10:19:09;21.55;;;14.45;;
25780;SDS011;13626;48.128;11.628;2022-12-17T10:22:13;20.98;;;13.73;;
25780;SDS011;13626;48.128;11.628;2022-12-17T10:25:05;21.00;;;14.25;;
25780;SDS011;13626;48.128;11.628;2022-12-17T10:27:51;22.38;;;15.30;;
25780;SDS011;13626;48.128;11.628;2022-12-17T10:30:36;25.48;;;15.82;;
25780;SDS011;13626;48.128;11.628;2022-12-17T10:33:38;23.98;;;15.02;;
25780;SDS011;13626;48.128;11.628;2022-12-17T10:36:24;22.35;;;14.82;;
25780;SDS011;13626;48.128;11.628;2022-12-17T10:39:14;27.40;;;15.43;;
25780;SDS011;13626;48.128;11.628;2022-12-17T10:42:18;26.23;;;15.07;;
25780;SDS011;13626;48.128;11.628;2022-12-17T10:45:24;24.95;;;14.15;;
25780;SDS011;13626;48.128;11.628;2022-12-17T10:51:02;28.52;;;14.93;;
25780;SDS011;13626;48.128;11.628;2022-12-17T10:53:49;25.20;;;14.55;;
25780;SDS011;13626;48.128;11.628;2022-12-17T10:56:36;23.98;;;13.63;;
25780;SDS011;13626;48.128;11.628;2022-12-17T10:59:30;24.77;;;13.85;;
25780;SDS011;13626;48.128;11.628;2022-12-17T11:02:19;25.75;;;14.30;;
25780;SDS011;13626;48.128;11.628;2022-12-17T11:05:13;25.00;;;14.88;;
25780;SDS011;13626;48.128;11.628;2022-12-17T11:07:59;28.52;;;15.18;;
25780;SDS011;13626;48.128;11.628;2022-12-17T11:10:45;26.98;;;15.27;;
25780;SDS011;13626;48.128;11.628;2022-12-17T11:13:42;28.13;;;14.23;;
25780;SDS011;13626;48.128;11.628;2022-12-17T11:16:31;26.05;;;13.75;;
25780;SDS011;13626;48.128;11.628;2022-12-17T11:22:17;26.63;;;14.02;;
25780;SDS011;13626;48.128;11.628;2022-12-17T11:25:08;25.75;;;14.95;;
25780;SDS011;13626;48.128;11.628;2022-12-17T11:28:02;24.17;;;13.68;;
25780;SDS011;13626;48.128;11.628;2022-12-17T11:30:52;26.15;;;15.00;;
25780;SDS011;13626;48.128;11.628;2022-12-17T11:33:41;25.65;;;13.73;;
25780;SDS011;13626;48.128;11.628;2022-12-17T11:39:52;26.75;;;13.95;;
25780;SDS011;13626;48.128;11.628;2022-12-17T11:42:48;25.92;;;14.20;;
25780;SDS011;13626;48.128;11.628;2022-12-17T11:45:49;28.75;;;14.55;;
25780;SDS011;13626;48.128;11.628;2022-12-17T11:48:39;31.52;;;15.68;;
25780;SDS011;13626;48.128;11.628;2022-12-17T11:52:10;27.42;;;15.73;;
25780;SDS011;13626;48.128;11.628;2022-12-17T11:54:40;30.02;;;17.38;;
25780;SDS011;13626;48.128;11.628;2022-12-17T11:57:33;34.65;;;17.90;;
25780;SDS011;13626;48.128;11.628;2022-12-17T12:00:22;31.75;;;18.40;;
25780;SDS011;13626;48.128;11.628;2022-12-17T12:26:54;31.35;;;17.15;;
25780;SDS011;13626;48.128;11.628;2022-12-17T12:30:17;35.25;;;17.65;;
25780;SDS011;13626;48.128;11.628;2022-12-17T12:35:57;30.95;;;17.05;;
25780;SDS011;13626;48.128;11.628;2022-12-17T12:38:43;34.10;;;17.17;;
25780;SDS011;13626;48.128;11.628;2022-12-17T12:44:21;34.33;;;18.98;;
25780;SDS011;13626;48.128;11.628;2022-12-17T12:47:17;37.33;;;18.75;;
25780;SDS011;13626;48.128;11.628;2022-12-17T12:50:26;33.88;;;17.75;;
25780;SDS011;13626;48.128;11.628;2022-12-17T12:53:12;36.28;;;18.27;;
25780;SDS011;13626;48.128;11.628;2022-12-17T12:55:58;40.33;;;18.70;;
25780;SDS011;13626;48.128;11.628;2022-12-17T12:58:44;36.63;;;18.25;;
25780;SDS011;13626;48.128;11.628;2022-12-17T13:01:31;33.60;;;18.05;;
25780;SDS011;13626;48.128;11.628;2022-12-17T13:04:32;36.47;;;18.52;;
25780;SDS011;13626;48.128;11.628;2022-12-17T13:07:22;36.47;;;19.17;;
25780;SDS011;13626;48.128;11.628;2022-12-17T13:09:52;34.25;;;18.40;;
25780;SDS011;13626;48.128;11.628;2022-12-17T13:12:33;36.30;;;19.33;;
25780;SDS011;13626;48.128;11.628;2022-12-17T13:17:41;36.88;;;20.55;;
25780;SDS011;13626;48.128;11.628;2022-12-17T13:23:03;37.88;;;20.10;;
25780;SDS011;13626;48.128;11.628;2022-12-17T13:25:30;38.05;;;19.58;;
25780;SDS011;13626;48.128;11.628;2022-12-17T13:27:57;42.17;;;21.23;;
25780;SDS011;13626;48.128;11.628;2022-12-17T13:30:32;37.38;;;20.42;;
25780;SDS011;13626;48.128;11.628;2022-12-17T13:33:12;40.35;;;20.73;;
25780;SDS011;13626;48.128;11.628;2022-12-17T13:35:42;40.35;;;20.52;;
25780;SDS011;13626;48.128;11.628;2022-12-17T13:43:26;38.70;;;20.02;;
25780;SDS011;13626;48.128;11.628;2022-12-17T13:45:56;38.72;;;19.23;;
25780;SDS011;13626;48.128;11.628;2022-12-17T13:48:25;36.30;;;20.05;;
25780;SDS011;13626;48.128;11.628;2022-12-17T13:53:25;42.92;;;20.90;;
25780;SDS011;13626;48.128;11.628;2022-12-17T13:55:53;42.90;;;20.92;;
25780;SDS011;13626;48.128;11.628;2022-12-17T13:58:22;40.25;;;21.17;;
25780;SDS011;13626;48.128;11.628;2022-12-17T14:00:49;42.28;;;21.70;;
25780;SDS011;13626;48.128;11.628;2022-12-17T14:03:20;38.15;;;20.50;;
25780;SDS011;13626;48.128;11.628;2022-12-17T14:06:08;43.03;;;20.85;;
25780;SDS011;13626;48.128;11.628;2022-12-17T14:08:36;40.33;;;20.58;;
25780;SDS011;13626;48.128;11.628;2022-12-17T14:11:04;40.08;;;21.20;;
25780;SDS011;13626;48.128;11.628;2022-12-17T14:13:50;45.08;;;22.20;;
25780;SDS011;13626;48.128;11.628;2022-12-17T14:16:18;41.42;;;20.10;;
25780;SDS011;13626;48.128;11.628;2022-12-17T14:18:50;38.65;;;20.00;;
25780;SDS011;13626;48.128;11.628;2022-12-17T14:21:18;40.80;;;21.30;;
25780;SDS011;13626;48.128;11.628;2022-12-17T14:23:47;41.30;;;21.17;;
25780;SDS011;13626;48.128;11.628;2022-12-17T14:26:15;35.95;;;20.48;;
25780;SDS011;13626;48.128;11.628;2022-12-17T14:28:50;45.85;;;21.48;;
25780;SDS011;13626;48.128;11.628;2022-12-17T14:36:27;42.10;;;20.92;;
25780;SDS011;13626;48.128;11.628;2022-12-17T14:41:22;47.17;;;21.98;;
25780;SDS011;13626;48.128;11.628;2022-12-17T14:44:16;39.15;;;21.55;;
25780;SDS011;13626;48.128;11.628;2022-12-17T14:46:48;42.97;;;22.33;;
25780;SDS011;13626;48.128;11.628;2022-12-17T14:49:17;44.55;;;21.55;;
25780;SDS011;13626;48.128;11.628;2022-12-17T14:51:45;42.08;;;21.50;;
25780;SDS011;13626;48.128;11.628;2022-12-17T14:56:40;39.60;;;20.42;;
25780;SDS011;13626;48.128;11.628;2022-12-17T15:02:36;46.15;;;22.75;;
25780;SDS011;13626;48.128;11.628;2022-12-17T15:04:54;41.53;;;21.85;;
25780;SDS011;13626;48.128;11.628;2022-12-17T15:07:23;43.88;;;20.90;;
25780;SDS011;13626;48.128;11.628;2022-12-17T15:09:52;45.47;;;21.77;;
25780;SDS011;13626;48.128;11.628;2022-12-17T15:12:20;42.97;;;21.98;;
25780;SDS011;13626;48.128;11.628;2022-12-17T15:14:48;54.03;;;22.40;;
25780;SDS011;13626;48.128;11.628;2022-12-17T15:17:15;46.60;;;21.80;;
25780;SDS011;13626;48.128;11.628;2022-12-17T15:19:42;44.92;;;22.08;;
25780;SDS011;13626;48.128;11.628;2022-12-17T15:22:13;45.42;;;22.80;;
25780;SDS011;13626;48.128;11.628;2022-12-17T15:24:42;47.40;;;22.80;;
25780;SDS011;13626;48.128;11.628;2022-12-17T15:27:11;47.58;;;22.55;;
25780;SDS011;13626;48.128;11.628;2022-12-17T15:29:38;47.08;;;22.65;;
25780;SDS011;13626;48.128;11.628;2022-12-17T15:32:05;47.40;;;23.02;;
25780;SDS011;13626;48.128;11.628;2022-12-17T15:34:33;53.03;;;23.70;;
25780;SDS011;13626;48.128;11.628;2022-12-17T15:37:00;52.42;;;24.80;;
25780;SDS011;13626;48.128;11.628;2022-12-17T15:39:27;46.50;;;23.40;;
25780;SDS011;13626;48.128;11.628;2022-12-17T15:41:55;47.33;;;22.67;;
25780;SDS011;13626;48.128;11.628;2022-12-17T15:44:41;48.75;;;22.95;;
25780;SDS011;13626;48.128;11.628;2022-12-17T15:47:08;46.25;;;22.58;;
25780;SDS011;13626;48.128;11.628;2022-12-17T15:49:35;55.42;;;25.00;;
25780;SDS011;13626;48.128;11.628;2022-12-17T15:52:02;52.08;;;24.13;;
25780;SDS011;13626;48.128;11.628;2022-12-17T15:54:30;50.17;;;24.27;;
25780;SDS011;13626;48.128;11.628;2022-12-17T15:56:57;53.28;;;24.92;;
25780;SDS011;13626;48.128;11.628;2022-12-17T15:59:24;69.55;;;25.42;;
25780;SDS011;13626;48.128;11.628;2022-12-17T16:01:51;46.65;;;24.48;;
25780;SDS011;13626;48.128;11.628;2022-12-17T16:04:19;50.60;;;23.48;;
25780;SDS011;13626;48.128;11.628;2022-12-17T16:06:50;50.45;;;25.45;;
25780;SDS011;13626;48.128;11.628;2022-12-17T16:09:17;53.50;;;26.08;;
25780;SDS011;13626;48.128;11.628;2022-12-17T16:11:55;54.30;;;26.42;;
25780;SDS011;13626;48.128;11.628;2022-12-17T16:14:22;50.80;;;25.52;;
25780;SDS011;13626;48.128;11.628;2022-12-17T16:16:50;48.47;;;24.92;;
25780;SDS011;13626;48.128;11.628;2022-12-17T16:19:17;52.30;;;25.38;;
25780;SDS011;13626;48.128;11.628;2022-12-17T16:21:47;54.60;;;27.00;;
25780;SDS011;13626;48.128;11.628;2022-12-17T16:24:15;56.58;;;25.75;;
25780;SDS011;13626;48.128;11.628;2022-12-17T16:26:42;53.55;;;25.25;;
25780;SDS011;13626;48.128;11.628;2022-12-17T16:29:09;56.13;;;25.88;;
25780;SDS011;13626;48.128;11.628;2022-12-17T16:31:36;50.95;;;23.17;;
25780;SDS011;13626;48.128;11.628;2022-12-17T16:34:08;46.78;;;23.08;;
25780;SDS011;13626;48.128;11.628;2022-12-17T16:36:35;50.83;;;24.17;;
25780;SDS011;13626;48.128;11.628;2022-12-17T16:39:03;50.45;;;24.08;;
25780;SDS011;13626;48.128;11.628;2022-12-17T16:41:30;47.45;;;22.48;;
25780;SDS011;13626;48.128;11.628;2022-12-17T16:43:58;52.20;;;23.42;;
25780;SDS011;13626;48.128;11.628;2022-12-17T16:48:54;46.20;;;20.77;;
25780;SDS011;13626;48.128;11.628;2022-12-17T16:51:22;42.30;;;19.98;;
25780;SDS011;13626;48.128;11.628;2022-12-17T16:53:55;46.03;;;20.15;;
25780;SDS011;13626;48.128;11.628;2022-12-17T16:56:23;46.83;;;22.08;;
25780;SDS011;13626;48.128;11.628;2022-12-17T16:58:50;43.20;;;19.42;;
25780;SDS011;13626;48.128;11.628;2022-12-17T17:01:18;42.70;;;19.02;;
25780;SDS011;13626;48.128;11.628;2022-12-17T17:03:46;40.40;;;18.92;;